Time;durP1;ratioP1;P1;durP2;ratioP2;P2;SDS_P1;SDS_P2;PMS_P1;PMS_P2;Temp;Humidity;BMP_temperature;BMP_pressure;BME280_temperature;BME280_humidity;BME280_pressure;Samples;Min_cycle;Max_cycle;Signal;HPM_P1;HPM_P2
2023/12/03 00:00:13;;;;;;;14.60;12.30;;;;;;;17.93;33.01;97936.52;104403;1260;68443;-59
2023/12/03 00:02:42;;;;;;;16.50;13.00;;;;;;;18.01;32.79;97933.45;104730;1257;72519;-59
2023/12/03 00:05:10;;;;;;;16.60;13.00;;;;;;;17.96;32.90;97925.20;104575;1256;59830;-60
2023/12/03 00:07:38;;;;;;;16.30;11.70;;;;;;;18.05;32.74;97914.27;104423;1263;59741;-59
2023/12/03 00:10:06;;;;;;;14.30;11.80;;;;;;;17.76;33.03;97909.83;104578;1268;72917;-59
2023/12/03 00:12:35;;;;;;;16.90;12.90;;;;;;;17.76;33.14;97902.65;104522;1260;68778;-60
2023/12/03 00:15:04;;;;;;;14.90;12.20;;;;;;;17.83;32.97;97914.18;104510;1259;72522;-59
2023/12/03 00:17:32;;;;;;;15.40;12.80;;;;;;;17.78;33.15;97915.63;104480;1253;60816;-59
2023/12/03 00:20:00;;;;;;;;;;;;;;;17.78;33.17;97903.84;104632;1258;59811;-59
2023/12/03 00:22:28;;;;;;;15.90;12.00;;;;;;;17.74;33.22;97893.74;104468;1258;71915;-60
2023/12/03 00:24:55;;;;;;;15.50;12.10;;;;;;;17.70;33.14;97904.80;104476;1259;69111;-60
2023/12/03 00:27:23;;;;;;;16.30;13.10;;;;;;;17.67;33.32;97927.04;105350;1258;72955;-60
2023/12/03 00:29:52;;;;;;;17.50;13.00;;;;;;;17.72;33.21;97936.78;104345;1253;60628;-59
2023/12/03 00:32:20;;;;;;;16.50;12.90;;;;;;;17.64;33.49;97939.02;104461;1254;60696;-59
2023/12/03 00:34:47;;;;;;;15.70;13.10;;;;;;;17.65;33.45;97940.16;104620;1253;72767;-58
2023/12/03 00:37:15;;;;;;;17.80;13.90;;;;;;;17.78;33.29;97941.95;104599;1258;69072;-60
2023/12/03 00:39:43;;;;;;;;;;;;;;;17.95;33.07;97933.52;104560;1269;72334;-59
2023/12/03 00:42:11;;;;;;;14.40;11.50;;;;;;;17.97;33.13;97914.52;104495;1258;59726;-59
2023/12/03 00:44:39;;;;;;;;;;;;;;;17.87;33.31;97913.16;104958;1258;60127;-60
2023/12/03 00:47:06;;;;;;;16.80;11.20;;;;;;;17.96;33.26;97923.45;104493;1260;72919;-60
2023/12/03 00:49:34;;;;;;;;;;;;;;;18.15;32.92;97910.86;105000;1257;69088;-60
2023/12/03 00:52:03;;;;;;;15.00;11.70;;;;;;;18.25;32.85;97906.70;104513;1258;73336;-60
2023/12/03 00:54:30;;;;;;;15.00;11.80;;;;;;;18.16;32.80;97918.08;104698;1258;60592;-60
2023/12/03 00:56:58;;;;;;;16.80;13.40;;;;;;;18.11;32.96;97926.65;104539;1257;59765;-61
2023/12/03 00:59:26;;;;;;;14.90;11.50;;;;;;;18.15;33.07;97924.27;104730;1254;72851;-61
2023/12/03 01:01:54;;;;;;;17.20;13.10;;;;;;;18.24;32.92;97923.15;104525;1254;69925;-61
2023/12/03 01:04:21;;;;;;;;;;;;;;;18.19;32.94;97946.16;104620;1258;72884;-60
2023/12/03 01:06:50;;;;;;;16.20;12.90;;;;;;;18.28;32.95;97967.66;104421;1259;60598;-60
2023/12/03 01:09:18;;;;;;;20.20;14.20;;;;;;;17.97;33.12;98007.21;104648;1259;59752;-60
2023/12/03 01:11:45;;;;;;;18.50;14.30;;;;;;;18.01;33.06;98026.39;105075;1257;72072;-60
2023/12/03 01:14:13;;;;;;;17.70;13.40;;;;;;;18.07;33.10;98010.66;104414;1257;69036;-59
2023/12/03 01:16:41;;;;;;;17.00;12.50;;;;;;;20.05;31.35;98005.06;104596;1258;73266;-59
2023/12/03 01:19:09;;;;;;;;;;;;;;;21.40;29.25;97991.52;104714;1257;60687;-61
2023/12/03 01:21:37;;;;;;;15.90;12.10;;;;;;;21.80;28.68;97986.22;104294;1264;59379;-59
2023/12/03 01:24:05;;;;;;;;;;;;;;;21.97;28.35;97993.55;104557;1257;73680;-59
2023/12/03 01:26:32;;;;;;;;;;;;;;;21.87;28.51;97992.73;104785;1260;69236;-59
2023/12/03 01:29:00;;;;;;;16.40;12.10;;;;;;;22.30;28.02;97999.17;104814;1254;71657;-65
2023/12/03 01:31:28;;;;;;;;;;;;;;;22.31;27.79;97976.52;104383;1273;59807;-60
2023/12/03 01:33:55;;;;;;;;;;;;;;;22.24;27.86;97982.59;104629;1254;59743;-59
2023/12/03 01:36:23;;;;;;;16.50;12.10;;;;;;;22.07;28.03;97996.29;104613;1259;72922;-59
2023/12/03 01:38:52;;;;;;;15.20;11.90;;;;;;;22.26;27.79;97959.45;104584;1253;69152;-59
2023/12/03 01:41:19;;;;;;;18.60;13.20;;;;;;;22.23;27.81;97937.95;104531;1254;73308;-59
2023/12/03 01:43:51;;;;;;;15.60;12.00;;;;;;;22.44;27.58;97934.42;104846;1259;60824;-59
2023/12/03 01:46:20;;;;;;;16.10;12.50;;;;;;;22.47;27.66;97933.33;104396;1266;59785;-60
2023/12/03 01:48:48;;;;;;;17.50;13.70;;;;;;;22.35;27.66;97935.21;104877;1256;72880;-59
2023/12/03 01:51:16;;;;;;;15.20;12.40;;;;;;;22.20;27.86;97918.60;104559;1260;68581;-60
2023/12/03 01:53:44;;;;;;;;;;;;;;;22.31;27.72;97908.38;104964;1254;72411;-59
2023/12/03 01:56:12;;;;;;;;;;;;;;;22.59;27.69;97904.73;104426;1255;60770;-60
2023/12/03 01:58:40;;;;;;;20.50;13.30;;;;;;;22.76;27.39;97921.75;104469;1264;59854;-60
2023/12/03 02:01:08;;;;;;;20.00;14.10;;;;;;;22.67;27.35;97917.33;104352;1269;71747;-62
2023/12/03 02:03:36;;;;;;;17.70;13.50;;;;;;;22.67;27.38;97912.19;104482;1265;68158;-60
2023/12/03 02:06:05;;;;;;;16.80;12.90;;;;;;;22.57;27.47;97913.66;104650;1259;71809;-59
2023/12/03 02:08:33;;;;;;;18.10;13.10;;;;;;;22.62;27.46;97932.19;104634;1252;61609;-60
2023/12/03 02:11:05;;;;;;;16.30;12.40;;;;;;;22.40;27.60;97935.02;104518;1253;61388;-60
2023/12/03 02:13:34;;;;;;;19.10;13.80;;;;;;;22.66;27.42;97949.67;104479;1257;72825;-60
2023/12/03 02:16:02;;;;;;;15.70;13.20;;;;;;;22.78;27.36;97950.54;104419;1268;68428;-60
2023/12/03 02:18:31;;;;;;;;;;;;;;;22.80;27.27;97938.05;104699;1270;72379;-60
2023/12/03 02:20:59;;;;;;;14.90;12.00;;;;;;;22.82;27.25;97942.31;104373;1259;61002;-60
2023/12/03 02:23:28;;;;;;;15.20;11.80;;;;;;;22.89;27.13;97938.44;104346;1259;60700;-60
2023/12/03 02:25:56;;;;;;;15.80;11.90;;;;;;;22.32;27.58;97921.05;104653;1258;72764;-59
2023/12/03 02:28:24;;;;;;;16.70;12.60;;;;;;;21.25;28.69;97908.70;104750;1252;70024;-60
2023/12/03 02:30:52;;;;;;;15.70;12.60;;;;;;;20.86;29.41;97887.17;104412;1259;71248;-59
2023/12/03 02:33:19;;;;;;;;;;;;;;;20.25;30.08;97855.81;104659;1260;60550;-60
2023/12/03 02:35:47;;;;;;;13.30;10.90;;;;;;;19.46;31.06;97847.96;104584;1254;60514;-60
2023/12/03 02:38:15;;;;;;;13.90;11.60;;;;;;;20.03;30.71;97858.45;104459;1274;73586;-60
2023/12/03 02:40:43;;;;;;;15.00;11.80;;;;;;;19.99;30.40;97863.09;104354;1275;69644;-59
2023/12/03 02:43:11;;;;;;;16.20;13.50;;;;;;;19.23;31.34;97841.15;104613;1261;72489;-59
2023/12/03 02:45:39;;;;;;;14.60;11.80;;;;;;;19.07;31.60;97847.33;104875;1259;61592;-60
2023/12/03 02:48:06;;;;;;;13.40;11.40;;;;;;;19.06;31.76;97859.87;104451;1257;60537;-59
2023/12/03 02:50:34;;;;;;;12.30;10.90;;;;;;;18.98;31.97;97861.57;104461;1265;73582;-61
2023/12/03 02:53:02;;;;;;;12.90;11.30;;;;;;;19.21;31.73;97835.15;104464;1256;70173;-60
2023/12/03 02:55:30;;;;;;;12.70;11.30;;;;;;;18.85;32.15;97803.81;104573;1262;72922;-58
2023/12/03 02:57:57;;;;;;;14.10;11.30;;;;;;;18.43;32.79;97798.48;104838;1254;60645;-59
2023/12/03 03:00:25;;;;;;;15.10;11.70;;;;;;;18.35;32.92;97823.79;104490;1260;60454;-58
2023/12/03 03:02:54;;;;;;;13.40;11.30;;;;;;;18.28;33.25;97828.34;104491;1269;72805;-59
2023/12/03 03:05:21;;;;;;;13.40;11.00;;;;;;;18.44;32.96;97838.83;105013;1254;69850;-59
2023/12/03 03:07:49;;;;;;;13.70;10.50;;;;;;;18.61;32.78;97846.11;104917;1257;72565;-59
2023/12/03 03:10:17;;;;;;;14.20;11.90;;;;;;;18.45;33.07;97923.34;104442;1257;61020;-60
2023/12/03 03:12:45;;;;;;;14.80;11.80;;;;;;;18.34;33.13;97948.33;104531;1257;60486;-59
2023/12/03 03:15:13;;;;;;;11.90;10.60;;;;;;;18.25;33.31;97918.80;104643;1254;73600;-60
2023/12/03 03:17:41;;;;;;;14.00;11.20;;;;;;;18.39;33.12;97914.41;104762;1254;68594;-59
2023/12/03 03:20:09;;;;;;;;;;;;;;;18.41;33.13;97900.98;104880;1257;72926;-59
2023/12/03 03:22:36;;;;;;;12.70;11.10;;;;;;;18.13;33.57;97895.91;104466;1258;60679;-59
2023/12/03 03:25:05;;;;;;;12.80;10.80;;;;;;;17.98;33.79;97905.17;104477;1266;60630;-60
2023/12/03 03:27:33;;;;;;;14.80;11.40;;;;;;;17.84;34.00;97930.72;104784;1257;73660;-62
2023/12/03 03:30:01;;;;;;;;;;;;;;;17.95;33.79;97923.17;104436;1270;69524;-60
2023/12/03 03:32:29;;;;;;;13.90;11.10;;;;;;;17.89;33.96;97909.08;104466;1257;72452;-60
2023/12/03 03:34:57;;;;;;;11.60;9.90;;;;;;;18.10;33.85;97910.54;104431;1258;61553;-60
2023/12/03 03:37:24;;;;;;;14.90;11.80;;;;;;;17.78;34.13;97928.56;104890;1251;59988;-60
2023/12/03 03:39:52;;;;;;;13.80;10.80;;;;;;;17.81;34.12;97913.41;104312;1256;73731;-59
2023/12/03 03:42:20;;;;;;;12.50;10.50;;;;;;;18.20;33.58;97903.83;104392;1258;69227;-59
2023/12/03 03:44:48;;;;;;;10.60;9.20;;;;;;;18.12;33.83;97902.69;104736;1262;72382;-60
2023/12/03 03:47:16;;;;;;;10.80;9.40;;;;;;;18.46;33.26;97892.48;104484;1259;60857;-59
2023/12/03 03:49:43;;;;;;;11.20;9.40;;;;;;;17.85;34.06;97884.73;104700;1257;60560;-59
2023/12/03 03:52:11;;;;;;;;;;;;;;;17.76;34.23;97891.09;104702;1267;74436;-59
2023/12/03 03:54:40;;;;;;;9.80;8.50;;;;;;;17.68;34.42;97897.58;104401;1260;68307;-62
2023/12/03 03:57:09;;;;;;;9.80;8.80;;;;;;;17.73;34.62;97905.52;104610;1254;73363;-59
2023/12/03 03:59:36;;;;;;;10.10;8.30;;;;;;;17.78;34.36;97903.22;104587;1253;60605;-60
2023/12/03 04:02:04;;;;;;;17.70;9.50;;;;;;;17.79;34.62;97910.03;104403;1252;60756;-59
2023/12/03 04:04:32;;;;;;;12.40;9.40;;;;;;;17.72;34.78;97923.52;104985;1254;73651;-59
2023/12/03 04:07:00;;;;;;;;;;;;;;;17.81;34.82;97933.10;104404;1257;68505;-58
2023/12/03 04:09:28;;;;;;;10.70;9.30;;;;;;;17.57;34.91;97955.87;104336;1269;73397;-59
2023/12/03 04:11:56;;;;;;;11.90;10.40;;;;;;;17.53;35.10;97962.08;104438;1267;61522;-59
2023/12/03 04:14:24;;;;;;;11.10;8.40;;;;;;;17.51;34.96;97958.70;104596;1255;60501;-61
2023/12/03 04:16:51;;;;;;;;;;;;;;;17.51;34.84;97954.48;104433;1254;73656;-60
2023/12/03 04:19:19;;;;;;;9.60;8.40;;;;;;;17.52;35.07;97946.39;104531;1253;69210;-61
2023/12/03 04:21:47;;;;;;;11.70;9.30;;;;;;;17.43;35.24;97939.30;104731;1270;72526;-60
2023/12/03 04:24:15;;;;;;;9.90;8.80;;;;;;;17.44;35.01;97945.61;106298;1252;60857;-59
2023/12/03 04:26:43;;;;;;;;;;;;;;;17.42;35.18;97957.98;108224;1253;60281;-60
2023/12/03 04:29:11;;;;;;;10.50;9.30;;;;;;;17.28;35.33;97963.27;105929;1254;73755;-59
2023/12/03 04:31:39;;;;;;;11.80;9.10;;;;;;;17.24;35.24;97950.38;104633;1257;69276;-59
2023/12/03 04:34:08;;;;;;;11.10;8.80;;;;;;;17.29;35.22;97944.23;104678;1254;71310;-59
2023/12/03 04:36:35;;;;;;;11.90;10.20;;;;;;;17.20;35.38;97948.29;104739;1255;60652;-60
2023/12/03 04:39:04;;;;;;;11.50;9.70;;;;;;;17.20;35.36;97938.79;104456;1254;60145;-59
2023/12/03 04:41:34;;;;;;;10.70;9.20;;;;;;;17.26;35.35;97937.79;104383;1260;73617;-58
2023/12/03 04:44:02;;;;;;;9.50;8.30;;;;;;;17.33;35.23;97944.17;104607;1265;69127;-59
2023/12/03 04:46:30;;;;;;;10.50;9.20;;;;;;;17.33;35.38;97947.88;104880;1266;71744;-58
2023/12/03 04:48:58;;;;;;;;;;;;;;;17.18;35.49;97950.95;104556;1259;60588;-60
2023/12/03 04:51:26;;;;;;;11.60;9.10;;;;;;;17.15;35.59;97956.69;104502;1257;60834;-59
2023/12/03 04:53:53;;;;;;;;;;;;;;;17.16;35.64;97952.55;104518;1257;73672;-59
2023/12/03 04:56:21;;;;;;;12.20;9.00;;;;;;;17.73;35.09;97945.42;104324;1275;68166;-59
2023/12/03 04:58:49;;;;;;;;;;;;;;;17.90;34.76;97945.50;104690;1258;71511;-60
2023/12/03 05:01:17;;;;;;;15.00;10.00;;;;;;;17.35;35.47;97956.38;104334;1268;61540;-60
2023/12/03 05:03:45;;;;;;;13.40;10.40;;;;;;;17.67;35.01;97956.86;104668;1258;60575;-60
2023/12/03 05:06:13;;;;;;;12.80;10.20;;;;;;;17.81;34.95;97954.90;104458;1258;73697;-63
2023/12/03 05:08:41;;;;;;;13.90;10.20;;;;;;;17.97;34.52;97964.84;108276;1254;69255;-60
2023/12/03 05:11:09;;;;;;;;;;;;;;;18.21;34.34;97957.27;108309;1253;73122;-61
2023/12/03 05:13:36;;;;;;;;;;;;;;;17.95;34.77;97955.65;108186;1254;60987;-62
2023/12/03 05:16:04;;;;;;;9.50;8.50;;;;;;;18.08;34.70;97954.19;108352;1254;59240;-60
2023/12/03 05:18:32;;;;;;;12.30;9.60;;;;;;;18.07;34.65;97947.37;108436;1252;74198;-59
2023/12/03 05:21:00;;;;;;;;;;;;;;;18.21;34.56;97951.75;108310;1253;69786;-60
2023/12/03 05:23:28;;;;;;;11.10;8.30;;;;;;;18.36;34.47;97955.14;108274;1253;72375;-60
2023/12/03 05:25:57;;;;;;;;;;;;;;;18.65;33.90;97963.54;108366;1254;60634;-60
2023/12/03 05:28:25;;;;;;;9.50;8.20;;;;;;;18.50;34.33;97968.95;108346;1254;60157;-60
2023/12/03 05:30:52;;;;;;;11.10;8.50;;;;;;;18.00;34.87;97973.27;108288;1253;73683;-60
2023/12/03 05:33:20;;;;;;;9.30;7.90;;;;;;;17.81;35.18;97980.09;108330;1253;69405;-60
2023/12/03 05:35:48;;;;;;;;;;;;;;;17.55;35.70;97985.28;108405;1253;72317;-58
2023/12/03 05:38:15;;;;;;;9.60;8.30;;;;;;;17.48;35.85;97992.48;108175;1253;59900;-59
2023/12/03 05:40:43;;;;;;;9.10;8.20;;;;;;;17.32;36.16;97998.84;108306;1253;58641;-59
2023/12/03 05:43:11;;;;;;;8.60;7.70;;;;;;;17.52;35.88;98007.38;108366;1252;75871;-59
2023/12/03 05:48:58;;;;;;;9.00;7.60;;;;;;;17.64;35.92;98016.59;101855;1292;601579;-58
2023/12/03 05:51:26;;;;;;;9.90;8.60;;;;;;;17.52;36.15;98014.05;103934;1269;60569;-59
2023/12/03 05:53:54;;;;;;;9.20;8.20;;;;;;;17.56;36.16;98023.48;104176;1264;60033;-59
2023/12/03 05:56:22;;;;;;;10.60;8.90;;;;;;;17.62;35.93;98019.99;104299;1270;72291;-58
2023/12/03 05:58:50;;;;;;;8.70;7.70;;;;;;;17.80;35.66;98022.55;104215;1265;69534;-58
2023/12/03 06:01:24;;;;;;;10.50;8.40;;;;;;;17.97;35.48;98037.17;103967;1266;73451;-58
2023/12/03 06:03:52;;;;;;;10.70;9.10;;;;;;;17.94;35.59;98048.41;103923;1271;61755;-58
2023/12/03 06:06:20;;;;;;;9.70;8.30;;;;;;;18.13;35.24;98049.20;104119;1263;60184;-58
2023/12/03 06:08:48;;;;;;;9.50;8.50;;;;;;;18.19;35.01;98052.04;104051;1259;71196;-58
2023/12/03 06:11:16;;;;;;;;;;;;;;;18.13;35.16;98065.27;104031;1266;69217;-58
2023/12/03 06:13:43;;;;;;;;;;;;;;;18.37;34.87;98067.48;104236;1265;72982;-59
2023/12/03 06:16:11;;;;;;;;;;;;;;;18.51;34.74;98072.06;104613;1263;61161;-58
2023/12/03 06:18:39;;;;;;;8.90;7.60;;;;;;;18.62;34.52;98070.98;104004;1265;59656;-58
2023/12/03 06:21:07;;;;;;;;;;;;;;;17.74;35.68;98080.48;104099;1258;72922;-58
2023/12/03 06:23:35;;;;;;;10.90;8.50;;;;;;;17.63;36.11;98081.23;104132;1275;69586;-58
2023/12/03 06:26:03;;;;;;;12.50;9.80;;;;;;;17.59;36.10;98077.92;104621;1259;72340;-59
2023/12/03 06:28:31;;;;;;;11.30;9.50;;;;;;;17.68;36.01;98086.40;104018;1257;60562;-58
2023/12/03 06:30:59;;;;;;;;;;;;;;;18.00;35.50;98089.48;104132;1265;59304;-58
2023/12/03 06:33:27;;;;;;;10.40;8.60;;;;;;;17.72;35.96;98097.74;104205;1264;72783;-58
2023/12/03 06:35:55;;;;;;;10.90;8.10;;;;;;;16.69;37.42;98109.46;104012;1257;69535;-59
2023/12/03 06:38:23;;;;;;;10.90;9.00;;;;;;;16.95;37.40;98111.48;104218;1265;72427;-59
2023/12/03 06:40:53;;;;;;;10.80;8.70;;;;;;;17.47;36.66;98114.14;103909;1260;61392;-58
2023/12/03 06:43:23;;;;;;;9.50;8.50;;;;;;;17.92;35.87;98109.25;104096;1257;59646;-59
2023/12/03 06:45:51;;;;;;;11.90;9.10;;;;;;;17.94;35.71;98108.87;104201;1260;73689;-58
2023/12/03 06:48:21;;;;;;;10.50;8.40;;;;;;;18.19;35.53;98115.50;104226;1259;68218;-58
2023/12/03 06:50:48;;;;;;;9.40;8.20;;;;;;;17.96;35.68;98118.98;104013;1260;71736;-58
2023/12/03 06:53:16;;;;;;;8.70;7.60;;;;;;;17.62;36.13;98128.05;103837;1262;60570;-59
2023/12/03 06:55:44;;;;;;;8.40;7.50;;;;;;;17.55;36.24;98127.33;104404;1260;60932;-58
2023/12/03 06:58:12;;;;;;;7.70;7.00;;;;;;;17.49;36.23;98127.17;104537;1262;72613;-59
2023/12/03 07:00:39;;;;;;;7.70;7.00;;;;;;;17.15;36.69;98129.00;104711;1260;70115;-59
2023/12/03 07:03:08;;;;;;;8.20;7.40;;;;;;;17.36;36.56;98135.55;104831;1259;72371;-57
2023/12/03 07:05:35;;;;;;;;;;;;;;;16.97;37.03;98143.98;104629;1271;61099;-59
2023/12/03 07:08:03;;;;;;;8.40;6.50;;;;;;;16.95;37.00;98149.96;104457;1260;59857;-59
2023/12/03 07:10:31;;;;;;;7.30;6.40;;;;;;;17.08;36.87;98162.04;104357;1261;73419;-59
2023/12/03 07:13:00;;;;;;;7.10;6.30;;;;;;;17.15;36.88;98163.15;104431;1266;69321;-59
2023/12/03 07:15:27;;;;;;;6.60;5.90;;;;;;;17.59;36.29;98167.14;104666;1257;73641;-58
2023/12/03 07:17:57;;;;;;;5.80;5.30;;;;;;;17.53;36.19;98175.23;104631;1256;61045;-60
2023/12/03 07:20:25;;;;;;;6.50;5.80;;;;;;;17.47;36.16;98182.30;104485;1261;62597;-59
2023/12/03 07:22:53;;;;;;;6.60;5.00;;;;;;;16.88;36.75;98186.69;104609;1261;73404;-59
2023/12/03 07:25:21;;;;;;;;;;;;;;;16.71;36.58;98184.67;104929;1256;69574;-60
2023/12/03 07:27:49;;;;;;;3.90;3.60;;;;;;;16.93;36.32;98185.16;104632;1260;72427;-59
2023/12/03 07:30:17;;;;;;;4.10;3.70;;;;;;;17.25;35.60;98181.88;104093;1263;61540;-60
2023/12/03 07:32:46;;;;;;;4.10;3.80;;;;;;;17.19;35.68;98191.46;104460;1259;59798;-61
2023/12/03 07:35:14;;;;;;;;;;;;;;;17.43;35.49;98197.20;104789;1256;72941;-61
2023/12/03 07:37:42;;;;;;;3.70;3.20;;;;;;;17.56;35.15;98198.46;105083;1254;69697;-61
2023/12/03 07:40:10;;;;;;;;;;;;;;;17.37;35.19;98205.40;104598;1272;72327;-63
2023/12/03 07:42:40;;;;;;;3.40;3.10;;;;;;;17.00;35.65;98215.70;105047;1262;59769;-61
2023/12/03 07:45:08;;;;;;;2.80;2.60;;;;;;;16.86;35.89;98219.44;104484;1257;59797;-62
2023/12/03 07:47:36;;;;;;;3.40;3.10;;;;;;;17.00;35.72;98221.34;104242;1262;72781;-61
2023/12/03 07:50:04;;;;;;;;;;;;;;;17.02;35.77;98222.42;104531;1259;70469;-61
2023/12/03 07:52:31;;;;;;;3.30;3.00;;;;;;;16.95;35.93;98227.36;104567;1259;72492;-60
2023/12/03 07:55:00;;;;;;;3.30;3.00;;;;;;;16.87;36.06;98231.88;104598;1261;59728;-61
2023/12/03 07:57:28;;;;;;;3.30;3.00;;;;;;;16.72;36.19;98238.92;104719;1259;59991;-58
2023/12/03 07:59:55;;;;;;;3.70;3.30;;;;;;;16.63;36.23;98239.39;104446;1259;72798;-58
2023/12/03 08:02:23;;;;;;;3.70;3.40;;;;;;;16.65;36.21;98238.69;104578;1259;69358;-58
2023/12/03 08:04:51;;;;;;;2.80;2.60;;;;;;;16.61;36.26;98241.84;105039;1259;74379;-57
2023/12/03 08:07:19;;;;;;;;;;;;;;;16.77;36.01;98246.95;104769;1257;60584;-58
2023/12/03 08:09:48;;;;;;;4.80;3.40;;;;;;;16.74;35.98;98252.19;104421;1271;59721;-57
2023/12/03 08:12:16;;;;;;;3.00;2.70;;;;;;;16.36;36.16;98263.38;104519;1254;71881;-57
2023/12/03 08:14:43;;;;;;;4.10;3.00;;;;;;;16.39;36.20;98258.30;104423;1269;69095;-58
2023/12/03 08:17:12;;;;;;;3.30;3.00;;;;;;;16.49;36.03;98265.75;104980;1256;72908;-57
2023/12/03 08:19:40;;;;;;;2.80;2.60;;;;;;;16.50;35.86;98266.14;104778;1256;60635;-58
2023/12/03 08:22:08;;;;;;;2.60;2.40;;;;;;;16.39;35.84;98266.66;104488;1261;60200;-57
2023/12/03 08:24:36;;;;;;;2.50;2.30;;;;;;;16.19;35.96;98283.75;104879;1259;72787;-58
2023/12/03 08:27:04;;;;;;;3.10;2.90;;;;;;;16.35;35.86;98291.02;104479;1268;69726;-59
2023/12/03 08:29:32;;;;;;;2.90;2.50;;;;;;;16.46;35.59;98296.10;104420;1258;72313;-59
2023/12/03 08:32:00;;;;;;;2.70;2.50;;;;;;;16.34;35.62;98309.66;104409;1259;60562;-59
2023/12/03 08:34:28;;;;;;;3.20;2.70;;;;;;;16.21;35.79;98315.38;104509;1259;59761;-59
2023/12/03 08:36:56;;;;;;;3.10;2.80;;;;;;;16.38;35.80;98325.39;104444;1260;72080;-59
2023/12/03 08:39:24;;;;;;;3.50;3.20;;;;;;;16.11;35.52;98339.83;104586;1260;69216;-59
2023/12/03 08:41:52;;;;;;;3.20;3.00;;;;;;;16.17;35.49;98334.47;104577;1253;72866;-59
2023/12/03 08:44:20;;;;;;;;;;;;;;;16.26;35.22;98332.30;104622;1257;61600;-59
2023/12/03 08:46:48;;;;;;;4.20;3.80;;;;;;;16.41;35.06;98331.34;104378;1257;59461;-59
2023/12/03 08:49:16;;;;;;;4.90;4.50;;;;;;;16.41;35.01;98330.09;105245;1253;73093;-59
2023/12/03 08:51:44;;;;;;;4.30;3.90;;;;;;;16.43;35.12;98339.29;104542;1253;70606;-60
2023/12/03 08:54:13;;;;;;;4.70;4.30;;;;;;;16.66;34.83;98348.41;104835;1257;73391;-58
2023/12/03 08:56:43;;;;;;;4.60;4.20;;;;;;;16.80;34.64;98359.57;104783;1257;60895;-60
2023/12/03 08:59:15;;;;;;;4.50;4.20;;;;;;;16.84;34.49;98360.18;104715;1267;59847;-58
2023/12/03 09:01:43;;;;;;;;;;;;;;;16.16;34.96;98365.33;104553;1258;73081;-57
2023/12/03 09:04:12;;;;;;;5.40;4.90;;;;;;;15.87;35.40;98372.36;104868;1259;69272;-56
2023/12/03 09:06:40;;;;;;;5.70;5.20;;;;;;;15.82;35.44;98391.56;104512;1269;72282;-57
2023/12/03 09:09:08;;;;;;;6.90;6.30;;;;;;;15.85;35.23;98408.91;104579;1259;60403;-56
2023/12/03 09:11:36;;;;;;;6.30;5.70;;;;;;;16.03;34.98;98410.14;104933;1253;60280;-56
2023/12/03 09:14:04;;;;;;;;;;;;;;;15.37;34.92;98424.17;104602;1256;73081;-57
2023/12/03 09:16:32;;;;;;;6.40;5.60;;;;;;;15.60;34.78;98412.08;104697;1256;70180;-56
2023/12/03 09:19:00;;;;;;;6.30;5.70;;;;;;;15.52;34.56;98420.85;104753;1256;72542;-57
2023/12/03 09:21:28;;;;;;;7.30;5.80;;;;;;;15.28;35.00;98430.23;105192;1254;61054;-57
2023/12/03 09:23:56;;;;;;;7.30;6.20;;;;;;;15.50;34.75;98433.35;104455;1255;59803;-56
2023/12/03 09:26:24;;;;;;;8.60;7.10;;;;;;;15.41;34.91;98447.69;104388;1256;72862;-56
2023/12/03 09:28:52;;;;;;;10.10;6.60;;;;;;;15.64;34.63;98454.66;105138;1253;69208;-63
2023/12/03 09:31:20;;;;;;;;;;;;;;;15.35;34.83;98455.44;105508;1256;72512;-57
2023/12/03 09:33:48;;;;;;;7.60;6.80;;;;;;;15.41;34.69;98461.14;105284;1254;59768;-56
2023/12/03 09:36:16;;;;;;;8.60;7.40;;;;;;;15.27;34.78;98463.52;104947;1257;59759;-56
2023/12/03 09:38:45;;;;;;;8.90;7.30;;;;;;;15.26;34.45;98475.02;104854;1252;72814;-58
2023/12/03 09:41:15;;;;;;;;;;;;;;;15.42;34.49;98473.02;104915;1256;69058;-58
2023/12/03 09:43:45;;;;;;;9.40;8.00;;;;;;;15.57;34.28;98489.18;104503;1257;72408;-57
2023/12/03 09:46:14;;;;;;;8.70;7.70;;;;;;;15.39;34.25;98484.05;104981;1262;59881;-58
2023/12/03 09:48:42;;;;;;;;;;;;;;;15.16;34.52;98501.14;104612;1256;60083;-58
2023/12/03 09:51:11;;;;;;;10.70;7.90;;;;;;;15.41;34.21;98502.45;104390;1257;72058;-58
2023/12/03 09:53:42;;;;;;;12.30;9.60;;;;;;;14.75;34.76;98514.15;104644;1259;71609;-57
2023/12/03 09:56:13;;;;;;;10.90;8.50;;;;;;;14.73;34.68;98516.98;104731;1257;71489;-57
2023/12/03 09:58:45;;;;;;;10.50;8.60;;;;;;;14.73;34.55;98519.09;105115;1253;60574;-57
2023/12/03 10:01:12;;;;;;;10.50;8.40;;;;;;;14.64;34.49;98519.11;104427;1260;60562;-56
2023/12/03 10:03:40;;;;;;;10.50;9.10;;;;;;;14.63;34.52;98525.71;105116;1253;74085;-56
2023/12/03 10:06:09;;;;;;;10.10;8.40;;;;;;;14.59;34.52;98539.36;105068;1260;69358;-57
2023/12/03 10:08:39;;;;;;;9.30;8.00;;;;;;;14.13;35.00;98538.64;104751;1259;72465;-57
2023/12/03 10:11:07;;;;;;;11.50;9.50;;;;;;;14.35;34.59;98544.41;104409;1257;61632;-57
2023/12/03 10:13:36;;;;;;;11.40;9.30;;;;;;;14.60;34.38;98550.92;104869;1257;59853;-57
2023/12/03 10:16:12;;;;;;;11.20;9.40;;;;;;;14.83;34.13;98549.02;104501;1275;74158;-58
2023/12/03 10:18:39;;;;;;;10.20;8.40;;;;;;;15.06;33.89;98556.98;104575;1274;69429;-57
2023/12/03 10:21:07;;;;;;;;;;;;;;;15.00;33.69;98564.48;104405;1266;72377;-57
2023/12/03 10:23:36;;;;;;;11.40;9.40;;;;;;;15.21;33.56;98574.70;105050;1257;60671;-58
2023/12/03 10:26:11;;;;;;;10.60;9.00;;;;;;;14.63;33.63;98584.20;104749;1261;60494;-57
2023/12/03 10:28:40;;;;;;;12.20;9.00;;;;;;;14.58;33.69;98580.89;104740;1257;73712;-58
2023/12/03 10:31:12;;;;;;;12.80;9.90;;;;;;;14.61;33.72;98587.54;104768;1256;69205;-57
2023/12/03 10:33:42;;;;;;;12.90;9.50;;;;;;;14.45;34.00;98587.16;105405;1257;72784;-58
2023/12/03 10:37:55;;;;;;;12.10;9.70;;;;;;;13.12;36.98;98594.54;102579;1289;601463;-57
2023/12/03 10:40:23;;;;;;;13.50;10.20;;;;;;;15.11;33.06;98589.59;104015;1267;62869;-57
2023/12/03 10:42:51;;;;;;;12.60;9.40;;;;;;;14.91;32.99;98591.46;103720;1267;59836;-58
2023/12/03 10:45:19;;;;;;;12.50;9.30;;;;;;;15.00;32.61;98597.82;103772;1267;73517;-57
2023/12/03 10:47:46;;;;;;;10.30;8.90;;;;;;;15.26;32.17;98599.19;104232;1270;69099;-58
2023/12/03 10:50:14;;;;;;;12.50;9.50;;;;;;;14.93;32.35;98605.55;103806;1272;72617;-59
2023/12/03 10:52:42;;;;;;;12.60;9.70;;;;;;;15.04;32.47;98607.09;104698;1260;219915;-58
2023/12/03 10:55:10;;;;;;;;;;;;;;;15.03;32.59;98613.15;104968;1257;59688;-58
2023/12/03 10:58:00;;;;;;;12.40;9.60;;;;;;;14.99;32.62;98619.08;104901;1257;71924;-59
2023/12/03 11:00:40;;;;;;;12.60;9.70;;;;;;;15.04;32.24;98631.04;104954;1260;69169;-59
2023/12/03 11:03:14;;;;;;;13.70;10.10;;;;;;;14.78;32.73;98648.36;104881;1263;72898;-59
2023/12/03 11:05:47;;;;;;;13.40;9.70;;;;;;;15.09;32.25;98650.44;104254;1261;61537;-57
2023/12/03 11:08:15;;;;;;;13.40;10.70;;;;;;;16.40;30.49;98657.13;104637;1257;59756;-59
2023/12/03 11:10:44;;;;;;;13.30;10.70;;;;;;;13.72;33.55;98665.45;104307;1257;74066;-58
2023/12/03 11:13:12;;;;;;;13.90;10.40;;;;;;;13.30;34.30;98670.83;104830;1257;69697;-60
2023/12/03 11:15:40;;;;;;;13.80;10.40;;;;;;;13.22;34.76;98677.23;104568;1257;72544;-60
2023/12/03 11:18:08;;;;;;;13.50;10.20;;;;;;;13.30;34.67;98679.83;104699;1258;60858;-60
2023/12/03 11:20:37;;;;;;;13.40;10.60;;;;;;;13.00;34.91;98688.22;104665;1255;60053;-57
2023/12/03 11:23:17;;;;;;;15.50;11.20;;;;;;;13.26;34.80;98695.08;104701;1253;71877;-59
2023/12/03 11:25:57;;;;;;;12.00;9.60;;;;;;;13.50;34.62;98701.02;104549;1256;69195;-60
2023/12/03 11:28:26;;;;;;;13.30;9.40;;;;;;;13.57;34.41;98701.01;104517;1261;73327;-60
2023/12/03 11:30:54;;;;;;;9.70;8.30;;;;;;;13.45;34.31;98716.14;105655;1254;60778;-59
2023/12/03 11:33:22;;;;;;;11.60;8.40;;;;;;;13.11;34.21;98718.73;104885;1252;59758;-59
2023/12/03 11:35:50;;;;;;;10.50;8.40;;;;;;;12.97;34.18;98733.59;104502;1254;72883;-58
2023/12/03 11:38:22;;;;;;;11.30;8.70;;;;;;;13.66;33.69;98734.39;104800;1257;68128;-58